King Salmon, AK (99549)

11:02 PM AKDT on August 30, 2015 (GMT -0800)
Pilot Point AP, Pilot Point, | | Change Station
CLOSE
Current Station
Airport
Location: Pilot Point AP, Pilot Point,,
Elevation: 56 ft
Nearby Weather Stations

Elev 56 ft 57.58 °N, 157.57 °W | Updated 1 hour ago

Scattered Clouds
Scattered Clouds
52 °F
Feels Like 52 °F
N
26
Wind Variable Wind from WNW
Gusts 32 mph

Today
High -- | Low -- °F
--% Chance of Precip.
Yesterday
High -- | Low -- °F
Precip. -- in
7:32 AM 9:36 PM
Waning Gibbous, 97% visible
Pressure 29.81 in
Visibility 10.0 miles
Clouds Scattered Clouds 3700 ft
Dew Point 39 °F
Humidity 62%
Rainfall 0.00 in
Snow Depth Not available.
UV 0 out of 12
Pollen Not available.
Air Quality Not available.
Flu Activity Not available.
METAR PAPN 310556Z AUTO 30023G28KT 10SM SCT037 11/04 A2981 RMK AO2 PWINO
Pressure 29.81 in
Visibility 10.0 miles
Clouds Scattered Clouds 3700 ft
Dew Point 39 °F
Humidity 62%
Rainfall 0.00 in
Snow Depth Not available.
UV 0 out of 12
Pollen Not available.
Air Quality Not available.
Flu Activity Not available.
METAR PAPN 310556Z AUTO 30023G28KT 10SM SCT037 11/04 A2981 RMK AO2 PWINO

10-Day Weather Forecast

×

Almanac

Astronomy

Aug. 30, 2015 Rise Set
Actual Time
Civil Twilight
Nautical Twilight
Astronomical Twilight
Moon
Length of Visible Light
Length of Day
Tomorrow will be .
, % of the Moon is Illuminated

Today's Extremes

State Highs State Lows

Community

WunderPhotos

Upload Photos

1,851,217 photos uploaded!

WunderBlogs® & News

Nearby

Air Quality

  Air Quality AQ Index Pollutant
Not available.

Snow Depth

Station Depth Elevation

Earthquake Activity

City Distance Mag. Time & Date
Minimum magnitude displayed is 2.5.

Coastal Water Temperatures

Place Temperature

Stations

Nearby Weather Stations

Station Location Temp. Windchill Dew Point Humidity Wind Precip. Elev Updated Type